Time;durP1;ratioP1;P1;durP2;ratioP2;P2;SDS_P1;SDS_P2;PMS_P1;PMS_P2;Temp;Humidity;BMP_temperature;BMP_pressure;BME280_temperature;BME280_humidity;BME280_pressure;Samples;Min_cycle;Max_cycle;Signal;HPM_P1;HPM_P2
2022/08/06 00:00:51;;;;;;;1.05;1.05;;;18.20;99.90;;;;;;7379410;19;20361;-77
2022/08/06 00:03:16;;;;;;;1.03;1.03;;;18.30;99.90;;;;;;7378645;19;20853;-77
2022/08/06 00:05:42;;;;;;;1.30;1.20;;;18.20;99.90;;;;;;7378674;19;20343;-77
2022/08/06 00:08:07;;;;;;;1.30;1.20;;;18.20;99.90;;;;;;7379963;19;20910;-77
2022/08/06 00:10:33;;;;;;;3.90;1.20;;;18.10;99.90;;;;;;7379435;19;20312;-77
2022/08/06 00:12:59;;;;;;;1.10;1.10;;;18.00;99.90;;;;;;7378113;19;20880;-77
2022/08/06 00:15:24;;;;;;;1.15;1.05;;;18.00;99.90;;;;;;7375626;19;20928;-76
2022/08/06 00:17:50;;;;;;;1.40;1.30;;;17.80;99.90;;;;;;7378923;19;20352;-77
2022/08/06 00:20:15;;;;;;;1.37;1.20;;;17.70;99.90;;;;;;7379220;19;20372;-77
2022/08/06 00:22:41;;;;;;;1.30;1.20;;;17.60;99.90;;;;;;7378922;19;20702;-77
2022/08/06 00:25:07;;;;;;;1.20;1.10;;;17.50;99.90;;;;;;7378674;19;20337;-76
2022/08/06 00:27:33;;;;;;;1.57;1.20;;;17.50;99.90;;;;;;7380808;19;20328;-76
2022/08/06 00:29:59;;;;;;;0.93;0.93;;;17.50;99.90;;;;;;7381050;19;20530;-77
2022/08/06 00:32:25;;;;;;;1.10;1.10;;;17.50;99.90;;;;;;7391837;19;20335;-76
2022/08/06 00:34:50;;;;;;;1.47;1.10;;;17.50;99.90;;;;;;7393091;19;20933;-76
2022/08/06 00:37:16;;;;;;;1.20;1.10;;;17.60;99.90;;;;;;7392264;19;20379;-77
2022/08/06 00:39:41;;;;;;;1.30;1.20;;;17.60;99.90;;;;;;7392755;19;20337;-77
2022/08/06 00:42:07;;;;;;;1.40;1.30;;;17.70;99.90;;;;;;7391837;19;20437;-77
2022/08/06 00:44:32;;;;;;;1.40;1.30;;;17.70;99.90;;;;;;7392690;19;20666;-76
2022/08/06 00:46:59;;;;;;;1.55;1.40;;;17.70;99.90;;;;;;7393103;19;20308;-76
2022/08/06 00:49:24;;;;;;;1.67;1.58;;;17.70;99.90;;;;;;7391904;19;20345;-76
2022/08/06 00:51:50;;;;;;;2.40;1.20;;;17.60;99.90;;;;;;7393301;19;20337;-76
2022/08/06 00:54:15;;;;;;;1.30;1.20;;;17.60;99.90;;;;;;7392301;19;20357;-76
2022/08/06 00:56:41;;;;;;;1.30;1.20;;;17.60;99.90;;;;;;7392460;19;20858;-76
2022/08/06 00:59:06;;;;;;;1.80;1.40;;;17.60;99.90;;;;;;7391793;19;20464;-76
2022/08/06 01:01:32;;;;;;;1.40;1.30;;;17.60;99.90;;;;;;7392745;19;20305;-76
2022/08/06 01:03:58;;;;;;;1.88;1.30;;;17.50;99.90;;;;;;7391421;19;20416;-77
2022/08/06 01:06:23;;;;;;;4.10;1.60;;;17.40;99.90;;;;;;7392845;19;20336;-77
2022/08/06 01:08:49;;;;;;;1.40;1.30;;;17.50;99.90;;;;;;7391272;19;20859;-77
2022/08/06 01:11:14;;;;;;;1.40;1.30;;;17.60;99.90;;;;;;7393191;19;20364;-77
2022/08/06 01:13:40;;;;;;;1.50;1.40;;;17.50;99.90;;;;;;7388954;19;20304;-76
2022/08/06 01:16:39;;;;;;;2.70;1.40;;;17.50;99.90;;;;;;7392569;19;20455;-76
2022/08/06 01:19:34;;;;;;;1.50;1.40;;;17.50;99.90;;;;;;7290300;19;2004484;-76
2022/08/06 01:22:17;;;;;;;1.50;1.40;;;17.50;99.90;;;;;;7391280;19;20862;-76
2022/08/06 01:25:18;;;;;;;1.13;1.13;;;17.50;99.90;;;;;;7289664;19;2004523;-76
2022/08/06 01:28:04;;;;;;;1.40;1.30;;;17.50;99.90;;;;;;7288377;19;2006147;-76
2022/08/06 01:30:32;;;;;;;2.17;1.30;;;17.50;99.90;;;;;;7389082;19;20700;-76
2022/08/06 01:33:02;;;;;;;1.40;1.30;;;17.50;99.90;;;;;;7390530;19;20312;-76
2022/08/06 01:35:29;;;;;;;1.50;1.40;;;17.50;99.90;;;;;;7391896;19;20830;-77
2022/08/06 01:38:06;;;;;;;1.40;1.20;;;17.40;99.90;;;;;;7391448;19;22025;-76
2022/08/06 01:40:33;;;;;;;1.40;1.30;;;17.40;99.90;;;;;;7390613;19;20348;-76
2022/08/06 01:42:59;;;;;;;1.10;1.10;;;17.30;99.90;;;;;;7383608;19;20320;-76
2022/08/06 01:45:27;;;;;;;1.23;1.23;;;17.30;99.90;;;;;;7384940;19;20321;-76
2022/08/06 01:51:02;;;;;;;1.10;1.10;;;17.20;99.90;;;;;;7156958;19;2004412;-76
2022/08/06 01:53:37;;;;;;;1.30;1.20;;;17.20;99.90;;;;;;7380905;19;20881;-76
2022/08/06 01:56:04;;;;;;;2.00;1.25;;;17.10;99.90;;;;;;7381428;19;20301;-76
2022/08/06 01:58:32;;;;;;;1.23;1.13;;;17.00;99.90;;;;;;7381246;19;20366;-76
2022/08/06 02:00:59;;;;;;;1.10;1.10;;;17.00;99.90;;;;;;7382884;19;20397;-76
2022/08/06 02:03:30;;;;;;;1.20;1.10;;;16.90;99.90;;;;;;7380420;19;20330;-76
2022/08/06 02:05:56;;;;;;;1.10;1.10;;;16.80;99.90;;;;;;7381522;19;20841;-76
2022/08/06 02:08:22;;;;;;;0.90;0.90;;;16.90;99.90;;;;;;7381296;19;20329;-76
2022/08/06 02:10:48;;;;;;;1.00;1.00;;;16.90;99.90;;;;;;7380869;19;20361;-76
2022/08/06 02:13:14;;;;;;;1.10;1.10;;;16.80;99.90;;;;;;7381019;19;20368;-76
2022/08/06 02:15:39;;;;;;;1.20;1.10;;;16.90;99.90;;;;;;7378815;19;20511;-76
2022/08/06 02:18:05;;;;;;;1.07;1.07;;;16.90;99.90;;;;;;7382711;19;20345;-76
2022/08/06 02:20:33;;;;;;;1.15;1.10;;;16.80;99.90;;;;;;7378130;19;20328;-76
2022/08/06 02:22:59;;;;;;;1.85;1.23;;;16.80;99.90;;;;;;7381338;19;20696;-76
2022/08/06 02:25:25;;;;;;;1.10;1.10;;;16.70;99.90;;;;;;7381745;19;20305;-75
2022/08/06 02:27:54;;;;;;;1.10;1.00;;;16.60;99.90;;;;;;7380649;19;20353;-76
2022/08/06 02:30:19;;;;;;;1.58;1.10;;;16.60;99.90;;;;;;7379354;19;20330;-76
2022/08/06 02:32:45;;;;;;;0.90;0.90;;;16.60;99.90;;;;;;7381697;19;20324;-76
2022/08/06 02:35:11;;;;;;;1.10;1.10;;;16.60;99.90;;;;;;7381221;19;20675;-75
2022/08/06 02:37:41;;;;;;;1.48;1.00;;;16.60;99.90;;;;;;7382034;19;20313;-76
2022/08/06 02:40:22;;;;;;;1.48;0.98;;;16.60;99.90;;;;;;7378244;19;20328;-76
2022/08/06 02:43:04;;;;;;;1.13;1.02;;;16.60;99.90;;;;;;7380237;19;20345;-76
2022/08/06 02:45:39;;;;;;;1.60;1.10;;;16.50;99.90;;;;;;7379494;19;20342;-75
2022/08/06 02:48:10;;;;;;;2.37;1.10;;;16.40;99.90;;;;;;7277198;19;2019479;-76
2022/08/06 02:50:38;;;;;;;1.23;1.00;;;16.40;99.90;;;;;;7378915;19;20320;-77
2022/08/06 02:53:09;;;;;;;1.10;1.00;;;16.30;99.90;;;;;;7378455;19;20317;-76
2022/08/06 02:55:35;;;;;;;1.00;1.00;;;16.30;99.90;;;;;;7378827;19;20326;-76
2022/08/06 02:58:38;;;;;;;1.00;1.00;;;16.30;99.90;;;;;;7381628;19;20322;-76
2022/08/06 03:01:25;;;;;;;1.45;1.08;;;16.30;99.90;;;;;;7173308;19;2018942;-75
2022/08/06 03:03:52;;;;;;;0.90;0.90;;;16.30;99.90;;;;;;7278954;19;2004388;-75
2022/08/06 03:06:17;;;;;;;1.05;1.05;;;16.20;99.90;;;;;;7379852;19;20309;-76
2022/08/06 03:08:43;;;;;;;1.00;1.00;;;16.10;99.90;;;;;;7379911;19;20345;-76
2022/08/06 03:11:09;;;;;;;1.05;1.00;;;16.00;99.90;;;;;;7379268;19;20317;-76
2022/08/06 03:13:35;;;;;;;3.10;1.17;;;15.90;99.90;;;;;;7379635;19;20349;-76
2022/08/06 03:16:01;;;;;;;1.43;1.10;;;15.90;99.90;;;;;;7380810;19;20289;-76
2022/08/06 03:18:27;;;;;;;1.80;0.90;;;15.90;99.90;;;;;;7379503;19;20845;-76
2022/08/06 03:20:52;;;;;;;1.33;1.03;;;15.90;99.90;;;;;;7377263;19;20341;-76
2022/08/06 03:23:18;;;;;;;3.20;1.05;;;15.90;99.90;;;;;;7381439;19;21208;-76
2022/08/06 03:25:43;;;;;;;0.80;0.80;;;15.90;99.90;;;;;;7379050;19;20328;-75
2022/08/06 03:28:09;;;;;;;1.13;1.05;;;15.80;99.90;;;;;;7381003;19;20436;-76
2022/08/06 03:30:35;;;;;;;1.10;0.83;;;15.70;99.90;;;;;;7376597;19;20349;-75
2022/08/06 03:33:08;;;;;;;0.90;0.90;;;15.70;99.90;;;;;;7377961;19;20540;-76
2022/08/06 03:35:34;;;;;;;0.85;0.85;;;15.60;99.90;;;;;;7276713;19;2004870;-77
2022/08/06 03:38:00;;;;;;;1.02;0.93;;;15.60;99.90;;;;;;7379666;19;20329;-76
2022/08/06 03:40:26;;;;;;;0.97;0.97;;;15.60;99.90;;;;;;7375324;19;20357;-77
2022/08/06 03:42:51;;;;;;;1.07;1.00;;;15.60;99.90;;;;;;7380825;19;20340;-76
2022/08/06 03:45:17;;;;;;;0.90;0.90;;;15.50;99.90;;;;;;7367925;19;21336;-76
2022/08/06 03:47:46;;;;;;;1.50;1.00;;;15.50;99.90;;;;;;7379526;19;20316;-76
2022/08/06 03:50:13;;;;;;;0.90;0.90;;;15.40;99.90;;;;;;7377090;19;20359;-76
2022/08/06 03:52:45;;;;;;;3.65;1.00;;;15.40;99.90;;;;;;7379728;19;20320;-76
2022/08/06 03:55:14;;;;;;;3.33;1.00;;;15.20;99.90;;;;;;7380686;19;20356;-76
2022/08/06 03:57:41;;;;;;;0.90;0.90;;;15.20;99.90;;;;;;7379336;19;20317;-76
2022/08/06 04:00:10;;;;;;;1.27;1.20;;;15.20;99.90;;;;;;7376125;19;20357;-76
2022/08/06 04:02:46;;;;;;;1.10;1.00;;;15.20;99.90;;;;;;7377212;19;20304;-76
2022/08/06 04:05:19;;;;;;;1.42;1.00;;;15.20;99.90;;;;;;7376476;19;20305;-76
2022/08/06 04:07:46;;;;;;;1.17;0.90;;;15.20;99.90;;;;;;7379294;19;20324;-75
2022/08/06 04:10:11;;;;;;;0.98;0.90;;;15.20;99.90;;;;;;7376532;19;20670;-76
2022/08/06 04:12:37;;;;;;;0.80;0.80;;;15.20;99.90;;;;;;7379626;19;20376;-76
2022/08/06 04:15:04;;;;;;;0.80;0.80;;;15.10;99.90;;;;;;7377807;19;20460;-76
2022/08/06 04:17:30;;;;;;;1.57;1.00;;;15.20;99.90;;;;;;7377881;19;20300;-76
2022/08/06 04:19:55;;;;;;;1.33;0.73;;;15.20;99.90;;;;;;7377001;19;20328;-76
2022/08/06 04:22:21;;;;;;;2.10;1.20;;;15.20;99.90;;;;;;7379360;19;20693;-76
2022/08/06 04:24:47;;;;;;;0.80;0.80;;;15.20;99.90;;;;;;7377498;19;20336;-76
2022/08/06 04:27:13;;;;;;;0.90;0.90;;;15.20;99.90;;;;;;7378575;19;20334;-76
2022/08/06 04:29:38;;;;;;;0.90;0.90;;;15.20;99.90;;;;;;7374007;19;20320;-75
2022/08/06 04:32:04;;;;;;;2.30;0.97;;;15.20;99.90;;;;;;7377196;19;20881;-76
2022/08/06 04:34:29;;;;;;;1.00;0.88;;;15.20;99.90;;;;;;7375476;19;20575;-76
2022/08/06 04:36:57;;;;;;;1.03;1.03;;;15.20;99.90;;;;;;7377627;19;20651;-76
2022/08/06 04:39:22;;;;;;;1.03;0.97;;;15.10;99.90;;;;;;7378625;19;20348;-76
2022/08/06 04:41:48;;;;;;;1.00;1.00;;;15.10;99.90;;;;;;7375211;19;20345;-75
2022/08/06 04:44:14;;;;;;;0.98;0.98;;;14.90;99.90;;;;;;7376108;19;20930;-76
2022/08/06 04:46:40;;;;;;;0.90;0.90;;;15.00;99.90;;;;;;7375675;19;20417;-75
2022/08/06 04:49:05;;;;;;;0.93;0.93;;;14.90;99.90;;;;;;7377711;19;20447;-77
2022/08/06 04:51:31;;;;;;;0.80;0.80;;;14.90;99.90;;;;;;7376738;19;20305;-76
2022/08/06 04:53:56;;;;;;;2.13;0.80;;;14.90;99.90;;;;;;7375061;19;20327;-76
2022/08/06 04:56:22;;;;;;;0.80;0.80;;;14.90;99.90;;;;;;7375692;19;20388;-76
2022/08/06 04:58:47;;;;;;;1.30;1.03;;;14.90;99.90;;;;;;7377126;19;20348;-76
2022/08/06 05:01:13;;;;;;;1.53;0.97;;;14.90;99.90;;;;;;7372849;19;20679;-75
2022/08/06 05:03:39;;;;;;;0.70;0.70;;;14.80;99.90;;;;;;7375272;19;20329;-77
2022/08/06 05:06:19;;;;;;;1.00;1.00;;;14.80;99.90;;;;;;7373170;19;20304;-76
2022/08/06 05:08:47;;;;;;;0.82;0.82;;;14.80;99.90;;;;;;7377786;19;20332;-76
2022/08/06 05:11:27;;;;;;;1.20;1.10;;;14.90;99.90;;;;;;7377075;19;20392;-76
2022/08/06 05:13:55;;;;;;;1.10;0.90;;;14.90;99.90;;;;;;7375553;19;20348;-76
2022/08/06 05:16:20;;;;;;;0.80;0.80;;;14.90;99.90;;;;;;7375995;19;20976;-76
2022/08/06 05:18:50;;;;;;;0.80;0.80;;;15.00;99.90;;;;;;7382394;19;20347;-76
2022/08/06 05:21:18;;;;;;;0.70;0.70;;;15.00;99.90;;;;;;7385471;19;20336;-76
2022/08/06 05:23:46;;;;;;;0.80;0.80;;;15.10;99.90;;;;;;7352741;19;20352;-76
2022/08/06 05:26:12;;;;;;;0.85;0.85;;;15.20;99.90;;;;;;7378021;19;20411;-76
2022/08/06 05:28:41;;;;;;;1.05;0.93;;;15.20;99.90;;;;;;7384639;19;20381;-75
2022/08/06 05:31:06;;;;;;;0.90;0.90;;;15.20;99.90;;;;;;7380462;19;20301;-76
2022/08/06 05:33:36;;;;;;;0.83;0.83;;;15.40;99.90;;;;;;7380277;19;20312;-76
2022/08/06 05:36:02;;;;;;;2.20;0.85;;;15.50;99.90;;;;;;7382636;19;20338;-76
2022/08/06 05:38:27;;;;;;;0.93;0.90;;;15.70;99.90;;;;;;7382255;19;20320;-76
2022/08/06 05:40:55;;;;;;;2.27;0.93;;;15.80;99.90;;;;;;7382244;19;20320;-76
2022/08/06 05:43:20;;;;;;;0.83;0.83;;;16.00;99.90;;;;;;7381559;19;20369;-76
2022/08/06 05:45:46;;;;;;;0.93;0.93;;;16.00;99.90;;;;;;7382290;19;20849;-77
2022/08/06 05:48:12;;;;;;;0.82;0.82;;;16.20;99.90;;;;;;7383026;19;20320;-77
2022/08/06 05:50:53;;;;;;;0.80;0.80;;;16.40;99.90;;;;;;7382124;19;20363;-77
2022/08/06 05:53:26;;;;;;;1.30;0.82;;;16.70;99.90;;;;;;7382641;19;20340;-77
2022/08/06 05:55:58;;;;;;;1.25;0.82;;;16.80;99.90;;;;;;7380568;19;21336;-78
2022/08/06 05:58:28;;;;;;;2.35;0.80;;;17.00;99.90;;;;;;7384477;19;20313;-76
2022/08/06 06:00:54;;;;;;;1.10;1.00;;;17.10;99.90;;;;;;7380640;19;20341;-76
2022/08/06 06:03:19;;;;;;;0.80;0.80;;;17.20;99.90;;;;;;7380612;19;20349;-76
2022/08/06 06:05:45;;;;;;;0.90;0.90;;;17.20;99.90;;;;;;7381866;19;20355;-76
2022/08/06 06:08:10;;;;;;;0.90;0.90;;;17.20;99.90;;;;;;7381798;19;20328;-76
2022/08/06 06:10:37;;;;;;;1.83;0.97;;;17.20;99.90;;;;;;7382583;19;21258;-76
2022/08/06 06:13:03;;;;;;;0.70;0.70;;;17.20;99.90;;;;;;7381332;19;20341;-76
2022/08/06 06:15:29;;;;;;;0.82;0.80;;;17.30;99.90;;;;;;7381108;19;20335;-77
2022/08/06 06:18:08;;;;;;;0.80;0.80;;;17.30;99.90;;;;;;7384651;19;20396;-77
2022/08/06 06:20:49;;;;;;;2.03;1.00;;;17.30;99.90;;;;;;7381235;19;20328;-76
2022/08/06 06:23:28;;;;;;;2.33;1.10;;;17.10;99.90;;;;;;7277572;19;2004560;-77
2022/08/06 06:26:12;;;;;;;0.70;0.70;;;17.10;99.90;;;;;;7381101;19;20359;-76
2022/08/06 06:28:57;;;;;;;2.60;0.90;;;17.00;99.90;;;;;;7278524;19;2019008;-77
2022/08/06 06:31:52;;;;;;;0.80;0.80;;;17.00;99.90;;;;;;7382076;19;20424;-77
2022/08/06 06:34:19;;;;;;;0.90;0.90;;;16.90;99.90;;;;;;7278450;19;2006081;-76
2022/08/06 06:36:59;;;;;;;0.85;0.85;;;17.00;99.90;;;;;;7379521;19;20319;-76
2022/08/06 06:39:37;;;;;;;8.60;1.80;;;17.00;99.90;;;;;;7382202;19;20320;-76
2022/08/06 06:42:13;;;;;;;0.85;0.85;;;17.10;99.90;;;;;;7383827;19;20945;-77
2022/08/06 06:44:44;;;;;;;1.60;0.90;;;17.00;99.90;;;;;;7277420;19;2019903;-76
2022/08/06 06:47:15;;;;;;;1.00;0.80;;;17.00;99.90;;;;;;7382327;19;20383;-76
2022/08/06 06:49:46;;;;;;;0.80;0.80;;;17.10;99.90;;;;;;7381926;19;20319;-76
2022/08/06 06:52:19;;;;;;;0.98;0.90;;;17.10;99.90;;;;;;7379938;19;20329;-77
2022/08/06 06:54:46;;;;;;;1.40;0.90;;;17.10;99.90;;;;;;7376538;19;20305;-75
2022/08/06 06:57:15;;;;;;;0.80;0.80;;;17.20;99.90;;;;;;7381903;19;20352;-76
2022/08/06 06:59:43;;;;;;;1.00;0.82;;;17.20;99.90;;;;;;7380503;19;20382;-75
2022/08/06 07:02:14;;;;;;;0.80;0.80;;;17.20;99.90;;;;;;7380806;19;20331;-76
2022/08/06 07:04:39;;;;;;;0.80;0.80;;;17.30;99.90;;;;;;7378352;19;20320;-76
2022/08/06 07:07:05;;;;;;;0.97;0.90;;;17.40;99.90;;;;;;7381052;19;20681;-76
2022/08/06 07:09:32;;;;;;;0.80;0.80;;;17.50;99.90;;;;;;7381226;19;20331;-75
2022/08/06 07:11:58;;;;;;;0.70;0.70;;;17.50;99.90;;;;;;7382319;19;20304;-76
2022/08/06 07:14:23;;;;;;;1.40;0.80;;;17.60;99.90;;;;;;7379013;19;20316;-76
2022/08/06 07:16:50;;;;;;;0.80;0.80;;;17.50;99.90;;;;;;7379140;19;20348;-76
2022/08/06 07:19:16;;;;;;;1.60;1.50;;;17.50;99.90;;;;;;7380455;19;20324;-76
2022/08/06 07:21:43;;;;;;;3.53;1.10;;;17.50;99.90;;;;;;7380118;19;20331;-75
2022/08/06 07:24:10;;;;;;;0.70;0.70;;;17.30;99.90;;;;;;7378437;19;20346;-77
2022/08/06 07:26:36;;;;;;;1.10;1.00;;;17.50;99.90;;;;;;7378369;19;20331;-75
2022/08/06 07:29:02;;;;;;;0.80;0.80;;;17.50;99.90;;;;;;7380220;19;20304;-75
2022/08/06 07:31:27;;;;;;;0.90;0.80;;;17.50;99.90;;;;;;7376609;19;20313;-74
2022/08/06 07:33:53;;;;;;;1.23;1.13;;;17.50;99.90;;;;;;7375424;19;20357;-75
2022/08/06 07:36:21;;;;;;;1.90;1.10;;;17.60;99.90;;;;;;7379339;19;20338;-75
2022/08/06 07:38:46;;;;;;;0.95;0.85;;;17.70;99.90;;;;;;7378111;19;20364;-75
2022/08/06 07:41:12;;;;;;;0.80;0.80;;;17.80;99.90;;;;;;7376948;19;20351;-75
2022/08/06 07:43:54;;;;;;;0.90;0.80;;;17.80;99.90;;;;;;7376562;19;20336;-76
2022/08/06 07:46:29;;;;;;;1.02;0.93;;;17.90;99.90;;;;;;7378245;19;20321;-76
2022/08/06 07:49:01;;;;;;;1.20;0.70;;;18.00;99.90;;;;;;7378321;19;21885;-76
2022/08/06 07:51:30;;;;;;;1.17;1.10;;;18.10;99.90;;;;;;7373218;19;20902;-75
2022/08/06 07:53:55;;;;;;;1.02;0.93;;;18.30;99.90;;;;;;7374795;19;20370;-75
2022/08/06 07:56:21;;;;;;;1.65;1.55;;;18.50;99.90;;;;;;7376363;19;20347;-76
2022/08/06 07:58:47;;;;;;;1.07;0.80;;;18.60;99.90;;;;;;7377621;19;20366;-75
2022/08/06 08:01:13;;;;;;;1.50;0.85;;;18.90;99.90;;;;;;7374997;19;20316;-75
2022/08/06 08:06:24;;;;;;;0.90;0.90;;;19.10;99.90;;;;;;7376647;19;20316;-76
2022/08/06 08:08:52;;;;;;;0.80;0.80;;;19.20;99.90;;;;;;7377670;19;20352;-75
2022/08/06 08:11:17;;;;;;;0.90;0.90;;;19.20;99.90;;;;;;7376566;19;20320;-76
2022/08/06 08:13:43;;;;;;;1.73;1.63;;;19.10;99.90;;;;;;7376215;19;20391;-75
2022/08/06 08:16:11;;;;;;;1.33;1.03;;;19.40;99.90;;;;;;7375591;19;20652;-75
2022/08/06 08:18:36;;;;;;;1.10;0.93;;;19.50;99.90;;;;;;7376250;19;20324;-76
2022/08/06 08:21:02;;;;;;;0.87;0.87;;;20.00;99.90;;;;;;7376189;19;20649;-75
2022/08/06 08:23:30;;;;;;;0.70;0.70;;;20.20;99.90;;;;;;7374603;19;20388;-76
2022/08/06 08:25:57;;;;;;;0.80;0.80;;;20.50;99.90;;;;;;7375917;19;21158;-76
2022/08/06 08:28:22;;;;;;;0.80;0.80;;;20.80;99.90;;;;;;7376100;19;20351;-76
2022/08/06 08:30:48;;;;;;;0.80;0.80;;;20.80;99.90;;;;;;7374782;19;21198;-77
2022/08/06 08:33:15;;;;;;;0.70;0.70;;;20.90;99.90;;;;;;7373658;19;20364;-78
2022/08/06 08:35:41;;;;;;;0.75;0.75;;;21.00;99.90;;;;;;7376025;19;20885;-77
2022/08/06 08:38:06;;;;;;;0.80;0.80;;;21.00;99.90;;;;;;7377401;19;20331;-76
2022/08/06 08:40:32;;;;;;;0.80;0.80;;;21.30;99.90;;;;;;7375739;19;21007;-76
2022/08/06 08:42:58;;;;;;;0.80;0.80;;;21.30;99.90;;;;;;7375342;19;20321;-78
2022/08/06 08:45:24;;;;;;;0.68;0.60;;;21.60;99.90;;;;;;7376616;19;20337;-78
2022/08/06 08:47:51;;;;;;;1.05;0.70;;;22.10;99.90;;;;;;7376582;19;20340;-77
2022/08/06 08:50:22;;;;;;;1.55;0.82;;;22.20;99.90;;;;;;7375871;19;20308;-77
2022/08/06 08:52:51;;;;;;;0.63;0.63;;;22.30;99.90;;;;;;7381354;19;20340;-76
2022/08/06 08:55:18;;;;;;;0.75;0.73;;;22.60;99.90;;;;;;7378823;19;20366;-76
2022/08/06 08:57:43;;;;;;;0.60;0.60;;;22.70;99.90;;;;;;7381367;19;20353;-77
2022/08/06 09:00:10;;;;;;;0.70;0.70;;;22.60;99.90;;;;;;7379798;19;20320;-77
2022/08/06 09:02:37;;;;;;;1.60;0.70;;;22.60;99.90;;;;;;7382242;19;20313;-77
2022/08/06 09:05:04;;;;;;;0.70;0.70;;;22.40;99.90;;;;;;7378976;19;20320;-77
2022/08/06 09:07:31;;;;;;;1.50;0.80;;;22.50;99.90;;;;;;7381603;19;20316;-76
2022/08/06 09:09:58;;;;;;;0.70;0.70;;;21.80;99.90;;;;;;7381715;19;20305;-76
2022/08/06 09:12:23;;;;;;;0.70;0.70;;;22.20;99.90;;;;;;7383312;19;20305;-77
2022/08/06 09:14:49;;;;;;;0.68;0.68;;;22.40;99.90;;;;;;7379542;19;20369;-77
2022/08/06 09:17:14;;;;;;;0.70;0.70;;;22.30;99.90;;;;;;7381474;19;20857;-77
2022/08/06 09:19:40;;;;;;;0.70;0.70;;;22.00;99.50;;;;;;7381318;19;20305;-77
2022/08/06 09:22:06;;;;;;;0.70;0.70;;;22.60;99.90;;;;;;7382842;19;20316;-78
2022/08/06 09:24:31;;;;;;;0.77;0.77;;;22.80;99.90;;;;;;7381430;19;20320;-79
2022/08/06 09:30:26;;;;;;;0.73;0.70;;;23.50;97.00;;;;;;7170074;19;2004518;-76
2022/08/06 09:32:52;;;;;;;0.90;0.60;;;23.40;96.60;;;;;;7380671;19;20361;-77
2022/08/06 09:35:22;;;;;;;0.68;0.68;;;23.50;96.10;;;;;;7374285;19;21215;-77
2022/08/06 09:37:48;;;;;;;0.70;0.70;;;23.50;97.20;;;;;;7379152;19;20332;-77
2022/08/06 09:40:15;;;;;;;0.80;0.75;;;23.60;95.40;;;;;;7378710;19;20327;-77
2022/08/06 09:42:42;;;;;;;0.70;0.70;;;23.80;94.90;;;;;;7380066;19;20355;-77
2022/08/06 09:45:09;;;;;;;0.70;0.70;;;24.00;94.50;;;;;;7375677;19;20435;-76
2022/08/06 09:47:36;;;;;;;0.60;0.60;;;24.00;93.20;;;;;;7379151;19;20348;-78
2022/08/06 09:50:06;;;;;;;1.48;0.70;;;24.60;94.10;;;;;;7378179;19;20755;-77
2022/08/06 09:52:31;;;;;;;0.70;0.70;;;24.80;92.60;;;;;;7379675;19;20328;-77
2022/08/06 09:54:57;;;;;;;0.70;0.70;;;25.40;92.20;;;;;;7377513;19;20404;-77
2022/08/06 09:57:27;;;;;;;0.63;0.63;;;25.70;92.40;;;;;;7380153;19;20351;-76
2022/08/06 09:59:52;;;;;;;0.60;0.60;;;25.90;90.00;;;;;;7380721;19;20337;-77
2022/08/06 10:02:19;;;;;;;0.63;0.63;;;25.40;82.40;;;;;;7380906;19;20324;-78
2022/08/06 10:04:45;;;;;;;0.65;0.65;;;25.50;85.80;;;;;;7375181;19;20349;-76
2022/08/06 10:07:10;;;;;;;1.57;0.60;;;25.20;83.90;;;;;;7379440;19;20983;-77
2022/08/06 10:09:39;;;;;;;1.20;0.60;;;25.00;85.20;;;;;;7379344;19;20301;-77
2022/08/06 10:12:18;;;;;;;2.97;0.70;;;25.40;87.10;;;;;;7381843;19;20320;-77
2022/08/06 10:14:43;;;;;;;0.77;0.57;;;26.30;86.80;;;;;;7274704;19;2020073;-77
2022/08/06 10:17:19;;;;;;;0.80;0.80;;;27.00;83.50;;;;;;7378101;19;20426;-77
2022/08/06 10:20:03;;;;;;;0.60;0.60;;;26.70;80.70;;;;;;7378054;19;20308;-76
2022/08/06 10:22:29;;;;;;;0.70;0.70;;;27.10;78.80;;;;;;7378450;19;20842;-77
2022/08/06 10:24:55;;;;;;;0.70;0.70;;;27.20;81.70;;;;;;7377470;19;20309;-77
2022/08/06 10:27:22;;;;;;;2.53;1.00;;;26.50;77.40;;;;;;7377710;19;20738;-77
2022/08/06 10:29:52;;;;;;;1.10;0.63;;;26.50;78.90;;;;;;7377599;19;20416;-76
2022/08/06 10:32:31;;;;;;;2.00;0.80;;;27.00;79.60;;;;;;7378300;19;20801;-77
2022/08/06 10:35:13;;;;;;;0.70;0.70;;;27.60;74.20;;;;;;7377096;19;20428;-79
2022/08/06 10:37:41;;;;;;;1.17;0.70;;;27.90;72.30;;;;;;7273490;19;2020138;-79
2022/08/06 10:40:07;;;;;;;0.75;0.70;;;28.10;70.70;;;;;;7377648;19;20305;-78
2022/08/06 10:42:33;;;;;;;0.63;0.63;;;28.00;68.70;;;;;;7381086;19;20358;-78
2022/08/06 10:44:58;;;;;;;2.85;0.77;;;27.50;68.60;;;;;;7383363;19;20341;-78
2022/08/06 10:47:24;;;;;;;0.65;0.65;;;27.10;67.70;;;;;;7382109;19;20320;-78
2022/08/06 10:49:50;;;;;;;0.60;0.60;;;27.40;68.10;;;;;;7382563;19;20327;-77
2022/08/06 10:52:15;;;;;;;0.60;0.60;;;27.50;68.10;;;;;;7381973;19;20313;-80
2022/08/06 10:54:41;;;;;;;0.60;0.60;;;28.10;70.50;;;;;;7380892;19;20312;-80
2022/08/06 10:57:08;;;;;;;1.52;0.80;;;28.70;68.40;;;;;;7381634;19;20325;-80
2022/08/06 10:59:34;;;;;;;0.80;0.60;;;28.60;64.70;;;;;;7385698;19;20433;-77
2022/08/06 11:02:27;;;;;;;0.60;0.60;;;28.30;63.20;;;;;;7382308;19;20308;-77
2022/08/06 11:04:55;;;;;;;1.00;0.90;;;27.90;64.90;;;;;;7276949;19;2004349;-78
2022/08/06 11:07:35;;;;;;;0.68;0.68;;;28.20;67.90;;;;;;7377753;19;20341;-76
2022/08/06 11:10:32;;;;;;;0.70;0.70;;;28.30;65.90;;;;;;7381482;19;20347;-78
2022/08/06 11:13:05;;;;;;;3.30;0.70;;;27.90;62.30;;;;;;7281736;19;2004441;-77
2022/08/06 11:15:35;;;;;;;0.57;0.57;;;28.30;62.70;;;;;;7380126;19;21166;-77
2022/08/06 11:18:05;;;;;;;0.70;0.70;;;28.80;63.30;;;;;;7381679;19;20866;-77
2022/08/06 11:20:36;;;;;;;0.68;0.68;;;29.10;64.90;;;;;;7381469;19;20656;-77
2022/08/06 11:23:11;;;;;;;0.60;0.60;;;29.60;63.00;;;;;;7381106;19;20727;-77
2022/08/06 11:25:37;;;;;;;0.60;0.60;;;27.20;57.50;;;;;;7278446;19;2013451;-77
2022/08/06 11:28:04;;;;;;;0.63;0.63;;;28.20;62.90;;;;;;7377041;19;20357;-76
2022/08/06 11:30:40;;;;;;;0.63;0.63;;;28.40;64.80;;;;;;7375979;19;20415;-78
2022/08/06 11:33:06;;;;;;;0.63;0.63;;;27.90;61.20;;;;;;7275820;19;2004477;-76
2022/08/06 11:35:34;;;;;;;3.00;0.63;;;27.30;60.10;;;;;;7378769;19;20677;-76
2022/08/06 11:38:01;;;;;;;0.70;0.70;;;27.90;60.00;;;;;;7374582;19;20308;-75
2022/08/06 11:40:26;;;;;;;0.77;0.77;;;27.90;61.60;;;;;;7378131;19;20922;-76
2022/08/06 11:42:58;;;;;;;1.45;0.70;;;28.00;60.50;;;;;;7380704;19;20333;-79
2022/08/06 11:45:24;;;;;;;0.60;0.60;;;28.50;68.70;;;;;;7377324;19;20324;-76
2022/08/06 11:48:05;;;;;;;0.60;0.60;;;28.20;64.10;;;;;;7373659;19;20345;-77
2022/08/06 11:50:31;;;;;;;0.90;0.90;;;28.80;61.10;;;;;;7374717;19;20388;-76
2022/08/06 11:52:56;;;;;;;0.70;0.70;;;28.10;56.20;;;;;;7375954;19;20972;-79
2022/08/06 11:55:22;;;;;;;0.60;0.60;;;27.70;57.40;;;;;;7376918;19;20320;-77
2022/08/06 11:57:48;;;;;;;0.60;0.60;;;28.20;62.60;;;;;;7374041;19;20699;-77
2022/08/06 12:00:16;;;;;;;0.67;0.67;;;28.70;64.20;;;;;;7373638;19;20348;-78
2022/08/06 12:02:50;;;;;;;0.60;0.60;;;29.60;59.60;;;;;;7374149;19;20447;-77
2022/08/06 12:05:15;;;;;;;0.52;0.52;;;29.80;57.10;;;;;;7372237;19;20360;-77
2022/08/06 12:08:07;;;;;;;0.60;0.50;;;29.60;58.40;;;;;;7375201;19;20470;-76
2022/08/06 12:10:32;;;;;;;0.57;0.57;;;30.10;58.00;;;;;;7375074;19;20321;-76
2022/08/06 12:12:58;;;;;;;0.60;0.60;;;30.40;55.70;;;;;;7374509;19;20393;-76
2022/08/06 12:15:28;;;;;;;0.60;0.60;;;30.80;55.60;;;;;;7347851;19;20316;-76
2022/08/06 12:17:57;;;;;;;2.05;0.57;;;30.70;55.00;;;;;;7369242;19;20381;-76
2022/08/06 12:20:35;;;;;;;0.60;0.60;;;30.70;53.90;;;;;;7376147;19;20357;-76
2022/08/06 12:23:02;;;;;;;0.73;0.73;;;30.70;53.20;;;;;;7374808;19;20316;-77
2022/08/06 12:25:38;;;;;;;0.80;0.60;;;30.70;54.20;;;;;;7371041;19;20421;-76
2022/08/06 12:28:04;;;;;;;0.60;0.60;;;31.00;54.00;;;;;;7372001;19;20309;-77
2022/08/06 12:30:52;;;;;;;2.30;0.70;;;30.80;52.10;;;;;;7372494;19;20334;-75
2022/08/06 12:33:19;;;;;;;0.60;0.60;;;31.50;54.00;;;;;;7270521;19;2004537;-76
2022/08/06 12:35:58;;;;;;;0.65;0.60;;;31.10;50.90;;;;;;7372191;19;21209;-75
2022/08/06 12:38:27;;;;;;;2.60;0.70;;;30.80;51.20;;;;;;7373132;19;21085;-76
2022/08/06 12:40:56;;;;;;;0.70;0.70;;;30.20;50.70;;;;;;7371792;19;20332;-77
2022/08/06 12:43:22;;;;;;;0.60;0.60;;;30.90;50.30;;;;;;7372106;19;20328;-76
2022/08/06 12:45:55;;;;;;;0.70;0.50;;;31.00;51.20;;;;;;7370705;19;20352;-76
2022/08/06 12:48:21;;;;;;;9.23;1.10;;;31.40;52.50;;;;;;7371142;19;20365;-76
2022/08/06 12:50:46;;;;;;;0.50;0.50;;;31.50;51.20;;;;;;7373267;19;20345;-77
2022/08/06 12:53:14;;;;;;;0.70;0.70;;;31.00;50.50;;;;;;7372196;19;21673;-76
2022/08/06 12:55:47;;;;;;;1.20;0.70;;;31.20;50.90;;;;;;7370448;19;20349;-78
2022/08/06 12:58:15;;;;;;;0.50;0.50;;;30.20;47.10;;;;;;7372577;19;20404;-76
2022/08/06 13:00:41;;;;;;;0.50;0.50;;;31.00;51.10;;;;;;7371086;19;20324;-76
2022/08/06 13:03:07;;;;;;;0.57;0.57;;;31.30;48.50;;;;;;7374028;19;20339;-77